sensor_id;sensor_type;location;lat;lon;timestamp;P1;durP1;ratioP1;P2;durP2;ratioP2
45842;SDS011;31563;51.744;8.252;2023-02-03T00:01:27;2.95;;;2.60;;
45842;SDS011;31563;51.744;8.252;2023-02-03T00:03:55;4.13;;;3.15;;
45842;SDS011;31563;51.744;8.252;2023-02-03T00:06:25;8.10;;;5.20;;
45842;SDS011;31563;51.744;8.252;2023-02-03T00:08:53;7.75;;;6.63;;
45842;SDS011;31563;51.744;8.252;2023-02-03T00:11:23;7.68;;;6.97;;
45842;SDS011;31563;51.744;8.252;2023-02-03T00:13:52;10.10;;;6.22;;
45842;SDS011;31563;51.744;8.252;2023-02-03T00:16:20;5.85;;;5.28;;
45842;SDS011;31563;51.744;8.252;2023-02-03T00:18:49;5.30;;;4.80;;
45842;SDS011;31563;51.744;8.252;2023-02-03T00:21:17;5.47;;;4.97;;
45842;SDS011;31563;51.744;8.252;2023-02-03T00:23:47;6.63;;;5.90;;
45842;SDS011;31563;51.744;8.252;2023-02-03T00:26:16;6.32;;;5.28;;
45842;SDS011;31563;51.744;8.252;2023-02-03T00:28:44;7.10;;;5.00;;
45842;SDS011;31563;51.744;8.252;2023-02-03T00:31:16;5.90;;;4.75;;
45842;SDS011;31563;51.744;8.252;2023-02-03T00:33:45;5.28;;;4.78;;
45842;SDS011;31563;51.744;8.252;2023-02-03T00:36:13;6.07;;;4.78;;
45842;SDS011;31563;51.744;8.252;2023-02-03T00:38:42;5.50;;;5.00;;
45842;SDS011;31563;51.744;8.252;2023-02-03T00:41:12;5.47;;;4.72;;
45842;SDS011;31563;51.744;8.252;2023-02-03T00:43:40;4.30;;;3.90;;
45842;SDS011;31563;51.744;8.252;2023-02-03T00:46:08;4.05;;;3.65;;
45842;SDS011;31563;51.744;8.252;2023-02-03T00:48:37;4.80;;;4.30;;
45842;SDS011;31563;51.744;8.252;2023-02-03T00:51:05;4.80;;;4.40;;
45842;SDS011;31563;51.744;8.252;2023-02-03T00:53:34;5.93;;;4.50;;
45842;SDS011;31563;51.744;8.252;2023-02-03T00:56:02;4.47;;;4.07;;
45842;SDS011;31563;51.744;8.252;2023-02-03T00:58:39;5.18;;;3.90;;
45842;SDS011;31563;51.744;8.252;2023-02-03T01:01:07;4.22;;;3.78;;
45842;SDS011;31563;51.744;8.252;2023-02-03T01:03:36;5.32;;;4.25;;
45842;SDS011;31563;51.744;8.252;2023-02-03T01:06:08;5.35;;;4.00;;
45842;SDS011;31563;51.744;8.252;2023-02-03T01:08:37;4.72;;;4.13;;
45842;SDS011;31563;51.744;8.252;2023-02-03T01:11:06;5.88;;;3.83;;
45842;SDS011;31563;51.744;8.252;2023-02-03T01:13:35;4.33;;;3.70;;
45842;SDS011;31563;51.744;8.252;2023-02-03T01:16:07;3.85;;;3.45;;
45842;SDS011;31563;51.744;8.252;2023-02-03T01:18:36;5.28;;;3.83;;
45842;SDS011;31563;51.744;8.252;2023-02-03T01:21:05;3.65;;;3.30;;
45842;SDS011;31563;51.744;8.252;2023-02-03T01:23:35;3.72;;;3.38;;
45842;SDS011;31563;51.744;8.252;2023-02-03T01:26:05;3.80;;;3.50;;
45842;SDS011;31563;51.744;8.252;2023-02-03T01:28:35;4.18;;;3.30;;
45842;SDS011;31563;51.744;8.252;2023-02-03T01:31:11;3.95;;;3.63;;
45842;SDS011;31563;51.744;8.252;2023-02-03T01:33:41;4.90;;;3.60;;
45842;SDS011;31563;51.744;8.252;2023-02-03T01:36:12;4.10;;;3.60;;
45842;SDS011;31563;51.744;8.252;2023-02-03T01:38:41;4.32;;;3.40;;
45842;SDS011;31563;51.744;8.252;2023-02-03T01:41:11;5.10;;;3.30;;
45842;SDS011;31563;51.744;8.252;2023-02-03T01:43:42;4.65;;;3.63;;
45842;SDS011;31563;51.744;8.252;2023-02-03T01:46:17;5.20;;;3.70;;
45842;SDS011;31563;51.744;8.252;2023-02-03T01:48:52;3.72;;;3.20;;
45842;SDS011;31563;51.744;8.252;2023-02-03T01:51:23;3.47;;;3.17;;
45842;SDS011;31563;51.744;8.252;2023-02-03T01:53:51;4.13;;;3.00;;
45842;SDS011;31563;51.744;8.252;2023-02-03T01:56:22;3.63;;;3.00;;
45842;SDS011;31563;51.744;8.252;2023-02-03T01:58:54;3.50;;;3.20;;
45842;SDS011;31563;51.744;8.252;2023-02-03T02:01:26;4.63;;;2.88;;
45842;SDS011;31563;51.744;8.252;2023-02-03T02:03:57;3.60;;;3.15;;
45842;SDS011;31563;51.744;8.252;2023-02-03T02:06:26;4.88;;;3.33;;
45842;SDS011;31563;51.744;8.252;2023-02-03T02:08:55;4.28;;;3.47;;
45842;SDS011;31563;51.744;8.252;2023-02-03T02:11:26;3.60;;;3.25;;
45842;SDS011;31563;51.744;8.252;2023-02-03T02:13:55;3.97;;;3.53;;
45842;SDS011;31563;51.744;8.252;2023-02-03T02:16:30;4.63;;;3.25;;
45842;SDS011;31563;51.744;8.252;2023-02-03T02:22:10;4.47;;;3.10;;
45842;SDS011;31563;51.744;8.252;2023-02-03T02:25:08;3.65;;;2.67;;
45842;SDS011;31563;51.744;8.252;2023-02-03T02:27:56;4.13;;;3.08;;
45842;SDS011;31563;51.744;8.252;2023-02-03T02:31:02;3.30;;;2.78;;
45842;SDS011;31563;51.744;8.252;2023-02-03T02:33:55;3.20;;;2.78;;
45842;SDS011;31563;51.744;8.252;2023-02-03T02:36:29;4.45;;;3.10;;
45842;SDS011;31563;51.744;8.252;2023-02-03T02:39:02;3.45;;;2.72;;
45842;SDS011;31563;51.744;8.252;2023-02-03T02:41:38;3.17;;;2.88;;
45842;SDS011;31563;51.744;8.252;2023-02-03T02:44:11;4.47;;;2.85;;
45842;SDS011;31563;51.744;8.252;2023-02-03T02:46:45;3.20;;;2.90;;
45842;SDS011;31563;51.744;8.252;2023-02-03T02:49:18;3.22;;;2.92;;
45842;SDS011;31563;51.744;8.252;2023-02-03T02:51:49;3.08;;;2.67;;
45842;SDS011;31563;51.744;8.252;2023-02-03T02:54:21;2.95;;;2.50;;
45842;SDS011;31563;51.744;8.252;2023-02-03T02:56:52;2.90;;;2.60;;
45842;SDS011;31563;51.744;8.252;2023-02-03T02:59:22;5.15;;;3.20;;
45842;SDS011;31563;51.744;8.252;2023-02-03T03:01:51;3.85;;;2.80;;
45842;SDS011;31563;51.744;8.252;2023-02-03T03:04:22;2.80;;;2.50;;
45842;SDS011;31563;51.744;8.252;2023-02-03T03:06:52;3.35;;;2.97;;
45842;SDS011;31563;51.744;8.252;2023-02-03T03:09:25;3.17;;;2.88;;
45842;SDS011;31563;51.744;8.252;2023-02-03T03:12:02;2.97;;;2.65;;
45842;SDS011;31563;51.744;8.252;2023-02-03T03:14:33;4.03;;;3.03;;
45842;SDS011;31563;51.744;8.252;2023-02-03T03:17:06;3.75;;;2.90;;
45842;SDS011;31563;51.744;8.252;2023-02-03T03:19:39;3.45;;;2.35;;
45842;SDS011;31563;51.744;8.252;2023-02-03T03:22:12;3.22;;;2.53;;
45842;SDS011;31563;51.744;8.252;2023-02-03T03:24:45;2.80;;;2.38;;
45842;SDS011;31563;51.744;8.252;2023-02-03T03:27:17;2.78;;;2.50;;
45842;SDS011;31563;51.744;8.252;2023-02-03T03:29:49;7.28;;;2.97;;
45842;SDS011;31563;51.744;8.252;2023-02-03T03:32:20;4.97;;;2.75;;
45842;SDS011;31563;51.744;8.252;2023-02-03T03:34:50;3.63;;;2.72;;
45842;SDS011;31563;51.744;8.252;2023-02-03T03:37:21;4.03;;;2.42;;
45842;SDS011;31563;51.744;8.252;2023-02-03T03:39:55;3.40;;;2.58;;
45842;SDS011;31563;51.744;8.252;2023-02-03T03:42:27;3.88;;;2.60;;
45842;SDS011;31563;51.744;8.252;2023-02-03T03:44:59;2.85;;;2.50;;
45842;SDS011;31563;51.744;8.252;2023-02-03T03:47:34;3.72;;;2.40;;
45842;SDS011;31563;51.744;8.252;2023-02-03T03:50:08;3.80;;;2.10;;
45842;SDS011;31563;51.744;8.252;2023-02-03T03:52:40;2.85;;;2.42;;
45842;SDS011;31563;51.744;8.252;2023-02-03T03:55:12;3.42;;;2.70;;
45842;SDS011;31563;51.744;8.252;2023-02-03T03:57:44;3.60;;;2.20;;
45842;SDS011;31563;51.744;8.252;2023-02-03T04:00:19;3.58;;;2.70;;
45842;SDS011;31563;51.744;8.252;2023-02-03T04:02:49;3.40;;;2.25;;
45842;SDS011;31563;51.744;8.252;2023-02-03T04:05:22;2.92;;;2.40;;
45842;SDS011;31563;51.744;8.252;2023-02-03T04:07:51;4.50;;;2.50;;
45842;SDS011;31563;51.744;8.252;2023-02-03T04:10:22;3.55;;;2.20;;
45842;SDS011;31563;51.744;8.252;2023-02-03T04:12:57;2.80;;;2.20;;
45842;SDS011;31563;51.744;8.252;2023-02-03T04:15:25;3.55;;;2.10;;
45842;SDS011;31563;51.744;8.252;2023-02-03T04:17:54;2.75;;;2.20;;
45842;SDS011;31563;51.744;8.252;2023-02-03T04:20:24;3.80;;;2.20;;
45842;SDS011;31563;51.744;8.252;2023-02-03T04:22:52;2.70;;;2.20;;
45842;SDS011;31563;51.744;8.252;2023-02-03T04:25:21;3.92;;;2.53;;
45842;SDS011;31563;51.744;8.252;2023-02-03T04:27:49;2.90;;;2.25;;
45842;SDS011;31563;51.744;8.252;2023-02-03T04:30:18;2.80;;;2.13;;
45842;SDS011;31563;51.744;8.252;2023-02-03T04:32:46;3.03;;;2.20;;
45842;SDS011;31563;51.744;8.252;2023-02-03T04:35:15;3.33;;;2.30;;
45842;SDS011;31563;51.744;8.252;2023-02-03T04:37:45;2.95;;;1.73;;
45842;SDS011;31563;51.744;8.252;2023-02-03T04:40:13;2.50;;;1.80;;
45842;SDS011;31563;51.744;8.252;2023-02-03T04:42:42;2.72;;;2.00;;
45842;SDS011;31563;51.744;8.252;2023-02-03T04:45:10;2.42;;;2.22;;
45842;SDS011;31563;51.744;8.252;2023-02-03T04:47:39;2.67;;;2.38;;
45842;SDS011;31563;51.744;8.252;2023-02-03T04:50:07;2.88;;;2.58;;
45842;SDS011;31563;51.744;8.252;2023-02-03T04:52:36;2.83;;;1.92;;
45842;SDS011;31563;51.744;8.252;2023-02-03T04:55:06;2.63;;;1.80;;
45842;SDS011;31563;51.744;8.252;2023-02-03T04:57:35;2.58;;;2.03;;
45842;SDS011;31563;51.744;8.252;2023-02-03T05:00:03;3.50;;;2.30;;
45842;SDS011;31563;51.744;8.252;2023-02-03T05:02:32;4.80;;;2.10;;
45842;SDS011;31563;51.744;8.252;2023-02-03T05:05:01;3.40;;;2.00;;
45842;SDS011;31563;51.744;8.252;2023-02-03T05:07:29;2.60;;;1.77;;
45842;SDS011;31563;51.744;8.252;2023-02-03T05:09:58;2.22;;;1.40;;
45842;SDS011;31563;51.744;8.252;2023-02-03T05:12:28;2.20;;;1.73;;
45842;SDS011;31563;51.744;8.252;2023-02-03T05:14:56;2.85;;;1.70;;
45842;SDS011;31563;51.744;8.252;2023-02-03T05:17:24;2.75;;;1.60;;
45842;SDS011;31563;51.744;8.252;2023-02-03T05:19:53;2.50;;;1.50;;
45842;SDS011;31563;51.744;8.252;2023-02-03T05:22:21;2.00;;;1.80;;
45842;SDS011;31563;51.744;8.252;2023-02-03T05:24:50;3.25;;;1.92;;
45842;SDS011;31563;51.744;8.252;2023-02-03T05:27:18;2.35;;;1.63;;
45842;SDS011;31563;51.744;8.252;2023-02-03T05:29:48;3.42;;;1.60;;
45842;SDS011;31563;51.744;8.252;2023-02-03T05:32:16;2.42;;;1.35;;
45842;SDS011;31563;51.744;8.252;2023-02-03T05:34:44;3.10;;;1.30;;
45842;SDS011;31563;51.744;8.252;2023-02-03T05:37:13;2.63;;;1.50;;
45842;SDS011;31563;51.744;8.252;2023-02-03T05:39:41;2.08;;;1.40;;
45842;SDS011;31563;51.744;8.252;2023-02-03T05:42:10;1.48;;;1.02;;
45842;SDS011;31563;51.744;8.252;2023-02-03T05:44:37;3.00;;;1.08;;
45842;SDS011;31563;51.744;8.252;2023-02-03T05:47:08;2.38;;;1.55;;
45842;SDS011;31563;51.744;8.252;2023-02-03T05:49:36;1.63;;;0.90;;
45842;SDS011;31563;51.744;8.252;2023-02-03T05:52:04;3.10;;;1.20;;
45842;SDS011;31563;51.744;8.252;2023-02-03T05:54:33;5.45;;;2.50;;
45842;SDS011;31563;51.744;8.252;2023-02-03T05:57:01;6.32;;;4.00;;
45842;SDS011;31563;51.744;8.252;2023-02-03T05:59:30;6.18;;;4.43;;
45842;SDS011;31563;51.744;8.252;2023-02-03T06:01:58;8.02;;;4.32;;
45842;SDS011;31563;51.744;8.252;2023-02-03T06:04:28;6.57;;;3.45;;
45842;SDS011;31563;51.744;8.252;2023-02-03T06:06:57;8.40;;;3.45;;
45842;SDS011;31563;51.744;8.252;2023-02-03T06:09:25;5.10;;;3.42;;
45842;SDS011;31563;51.744;8.252;2023-02-03T06:11:53;6.13;;;3.40;;
45842;SDS011;31563;51.744;8.252;2023-02-03T06:14:22;6.40;;;3.45;;
45842;SDS011;31563;51.744;8.252;2023-02-03T06:16:50;4.57;;;2.50;;
45842;SDS011;31563;51.744;8.252;2023-02-03T06:19:19;5.35;;;2.90;;
45842;SDS011;31563;51.744;8.252;2023-02-03T06:21:49;6.07;;;2.95;;
45842;SDS011;31563;51.744;8.252;2023-02-03T06:24:17;3.70;;;2.60;;
45842;SDS011;31563;51.744;8.252;2023-02-03T06:26:45;5.13;;;2.90;;
45842;SDS011;31563;51.744;8.252;2023-02-03T06:29:14;6.00;;;2.40;;
45842;SDS011;31563;51.744;8.252;2023-02-03T06:31:42;6.10;;;2.72;;
45842;SDS011;31563;51.744;8.252;2023-02-03T06:34:11;6.03;;;2.00;;
45842;SDS011;31563;51.744;8.252;2023-02-03T06:36:39;5.53;;;2.03;;
45842;SDS011;31563;51.744;8.252;2023-02-03T06:39:09;4.90;;;2.05;;
45842;SDS011;31563;51.744;8.252;2023-02-03T06:41:37;4.70;;;1.67;;
45842;SDS011;31563;51.744;8.252;2023-02-03T06:44:06;3.13;;;1.90;;
45842;SDS011;31563;51.744;8.252;2023-02-03T06:46:34;5.97;;;2.03;;
45842;SDS011;31563;51.744;8.252;2023-02-03T06:49:03;4.05;;;2.17;;
45842;SDS011;31563;51.744;8.252;2023-02-03T06:51:31;3.22;;;1.60;;
45842;SDS011;31563;51.744;8.252;2023-02-03T06:53:59;5.28;;;2.25;;
45842;SDS011;31563;51.744;8.252;2023-02-03T06:56:30;4.60;;;1.65;;
45842;SDS011;31563;51.744;8.252;2023-02-03T06:58:58;4.88;;;2.08;;
45842;SDS011;31563;51.744;8.252;2023-02-03T07:01:26;5.20;;;1.77;;
45842;SDS011;31563;51.744;8.252;2023-02-03T07:03:56;3.58;;;1.63;;
45842;SDS011;31563;51.744;8.252;2023-02-03T07:06:24;2.75;;;1.40;;
45842;SDS011;31563;51.744;8.252;2023-02-03T07:08:55;4.90;;;1.70;;
45842;SDS011;31563;51.744;8.252;2023-02-03T07:11:26;5.05;;;1.70;;
45842;SDS011;31563;51.744;8.252;2023-02-03T07:13:57;4.72;;;1.65;;
45842;SDS011;31563;51.744;8.252;2023-02-03T07:16:25;4.10;;;1.58;;
45842;SDS011;31563;51.744;8.252;2023-02-03T07:18:54;4.07;;;1.80;;
45842;SDS011;31563;51.744;8.252;2023-02-03T07:21:22;3.13;;;1.42;;
45842;SDS011;31563;51.744;8.252;2023-02-03T07:23:50;3.15;;;1.58;;
45842;SDS011;31563;51.744;8.252;2023-02-03T07:26:19;3.13;;;1.35;;
45842;SDS011;31563;51.744;8.252;2023-02-03T07:28:48;3.85;;;1.50;;
45842;SDS011;31563;51.744;8.252;2023-02-03T07:31:19;4.57;;;1.20;;
45842;SDS011;31563;51.744;8.252;2023-02-03T07:33:47;5.10;;;1.83;;
45842;SDS011;31563;51.744;8.252;2023-02-03T07:36:15;5.18;;;1.60;;
45842;SDS011;31563;51.744;8.252;2023-02-03T07:38:44;4.28;;;1.38;;
45842;SDS011;31563;51.744;8.252;2023-02-03T07:41:12;3.42;;;1.60;;
45842;SDS011;31563;51.744;8.252;2023-02-03T07:43:43;4.25;;;1.50;;
45842;SDS011;31563;51.744;8.252;2023-02-03T07:46:12;2.83;;;1.15;;
45842;SDS011;31563;51.744;8.252;2023-02-03T07:48:41;2.90;;;1.45;;
45842;SDS011;31563;51.744;8.252;2023-02-03T07:51:10;1.85;;;1.00;;
45842;SDS011;31563;51.744;8.252;2023-02-03T07:53:38;2.70;;;1.33;;
45842;SDS011;31563;51.744;8.252;2023-02-03T07:56:06;4.05;;;1.75;;
45842;SDS011;31563;51.744;8.252;2023-02-03T07:58:37;2.47;;;1.30;;
45842;SDS011;31563;51.744;8.252;2023-02-03T08:01:09;2.75;;;1.17;;
45842;SDS011;31563;51.744;8.252;2023-02-03T08:03:38;3.47;;;1.30;;
45842;SDS011;31563;51.744;8.252;2023-02-03T08:06:08;4.75;;;1.90;;
45842;SDS011;31563;51.744;8.252;2023-02-03T08:08:36;5.65;;;1.83;;
45842;SDS011;31563;51.744;8.252;2023-02-03T08:11:05;3.80;;;2.03;;
45842;SDS011;31563;51.744;8.252;2023-02-03T08:13:33;5.65;;;1.90;;
45842;SDS011;31563;51.744;8.252;2023-02-03T08:16:02;5.90;;;3.40;;
45842;SDS011;31563;51.744;8.252;2023-02-03T08:18:31;6.03;;;3.00;;
45842;SDS011;31563;51.744;8.252;2023-02-03T08:20:59;4.80;;;2.80;;
45842;SDS011;31563;51.744;8.252;2023-02-03T08:23:30;5.20;;;2.95;;
45842;SDS011;31563;51.744;8.252;2023-02-03T08:25:58;5.32;;;2.78;;
45842;SDS011;31563;51.744;8.252;2023-02-03T08:28:26;6.22;;;3.55;;
45842;SDS011;31563;51.744;8.252;2023-02-03T08:30:54;5.05;;;2.83;;
45842;SDS011;31563;51.744;8.252;2023-02-03T08:33:23;4.88;;;2.35;;
45842;SDS011;31563;51.744;8.252;2023-02-03T08:35:51;5.28;;;2.13;;
45842;SDS011;31563;51.744;8.252;2023-02-03T08:38:19;4.68;;;2.17;;
45842;SDS011;31563;51.744;8.252;2023-02-03T08:40:49;4.20;;;2.97;;
45842;SDS011;31563;51.744;8.252;2023-02-03T08:43:17;4.63;;;1.90;;
45842;SDS011;31563;51.744;8.252;2023-02-03T08:45:45;4.78;;;1.63;;
45842;SDS011;31563;51.744;8.252;2023-02-03T08:48:13;7.95;;;3.00;;
45842;SDS011;31563;51.744;8.252;2023-02-03T08:50:42;8.35;;;3.03;;
45842;SDS011;31563;51.744;8.252;2023-02-03T08:53:17;5.15;;;2.80;;
45842;SDS011;31563;51.744;8.252;2023-02-03T08:55:45;9.27;;;3.00;;
45842;SDS011;31563;51.744;8.252;2023-02-03T08:58:15;5.30;;;2.50;;
45842;SDS011;31563;51.744;8.252;2023-02-03T09:00:43;6.93;;;2.65;;
45842;SDS011;31563;51.744;8.252;2023-02-03T09:03:15;4.93;;;2.78;;
45842;SDS011;31563;51.744;8.252;2023-02-03T09:05:43;5.25;;;2.30;;
45842;SDS011;31563;51.744;8.252;2023-02-03T09:08:11;7.75;;;2.58;;
45842;SDS011;31563;51.744;8.252;2023-02-03T09:10:39;4.93;;;2.20;;
45842;SDS011;31563;51.744;8.252;2023-02-03T09:13:07;4.90;;;2.50;;
45842;SDS011;31563;51.744;8.252;2023-02-03T09:15:37;6.75;;;3.05;;
45842;SDS011;31563;51.744;8.252;2023-02-03T09:18:05;4.95;;;3.50;;
45842;SDS011;31563;51.744;8.252;2023-02-03T09:20:34;6.22;;;3.60;;
45842;SDS011;31563;51.744;8.252;2023-02-03T09:23:03;5.18;;;3.40;;
45842;SDS011;31563;51.744;8.252;2023-02-03T09:25:31;5.28;;;2.47;;
45842;SDS011;31563;51.744;8.252;2023-02-03T09:28:00;6.22;;;2.40;;
45842;SDS011;31563;51.744;8.252;2023-02-03T09:30:28;5.53;;;2.35;;
45842;SDS011;31563;51.744;8.252;2023-02-03T09:32:58;6.53;;;2.65;;
45842;SDS011;31563;51.744;8.252;2023-02-03T09:35:27;5.47;;;2.28;;
45842;SDS011;31563;51.744;8.252;2023-02-03T09:37:57;8.60;;;2.63;;
45842;SDS011;31563;51.744;8.252;2023-02-03T09:40:26;5.10;;;2.30;;
45842;SDS011;31563;51.744;8.252;2023-02-03T09:43:06;5.30;;;2.25;;
45842;SDS011;31563;51.744;8.252;2023-02-03T09:45:44;4.72;;;1.83;;
45842;SDS011;31563;51.744;8.252;2023-02-03T09:48:14;4.85;;;1.75;;
45842;SDS011;31563;51.744;8.252;2023-02-03T09:50:46;5.30;;;1.83;;
45842;SDS011;31563;51.744;8.252;2023-02-03T09:53:21;4.38;;;1.70;;
45842;SDS011;31563;51.744;8.252;2023-02-03T09:55:54;5.40;;;1.88;;
45842;SDS011;31563;51.744;8.252;2023-02-03T09:58:24;5.28;;;1.52;;
45842;SDS011;31563;51.744;8.252;2023-02-03T10:00:55;3.92;;;1.50;;
45842;SDS011;31563;51.744;8.252;2023-02-03T10:03:30;5.13;;;1.65;;
45842;SDS011;31563;51.744;8.252;2023-02-03T10:06:08;4.07;;;1.88;;
45842;SDS011;31563;51.744;8.252;2023-02-03T10:08:42;4.65;;;2.08;;
45842;SDS011;31563;51.744;8.252;2023-02-03T10:11:33;5.22;;;1.92;;
45842;SDS011;31563;51.744;8.252;2023-02-03T10:14:16;4.63;;;1.40;;
45842;SDS011;31563;51.744;8.252;2023-02-03T10:16:57;4.50;;;1.58;;
45842;SDS011;31563;51.744;8.252;2023-02-03T10:19:42;3.63;;;1.40;;
45842;SDS011;31563;51.744;8.252;2023-02-03T10:22:14;4.70;;;1.50;;
45842;SDS011;31563;51.744;8.252;2023-02-03T10:24:47;4.35;;;1.25;;
45842;SDS011;31563;51.744;8.252;2023-02-03T10:27:18;4.18;;;1.58;;
45842;SDS011;31563;51.744;8.252;2023-02-03T10:29:50;4.00;;;1.30;;
45842;SDS011;31563;51.744;8.252;2023-02-03T10:32:25;4.38;;;1.38;;
45842;SDS011;31563;51.744;8.252;2023-02-03T10:37:25;3.33;;;1.30;;
45842;SDS011;31563;51.744;8.252;2023-02-03T10:39:56;3.70;;;1.38;;
45842;SDS011;31563;51.744;8.252;2023-02-03T10:47:45;3.40;;;1.25;;
45842;SDS011;31563;51.744;8.252;2023-02-03T10:50:18;3.58;;;1.23;;
45842;SDS011;31563;51.744;8.252;2023-02-03T10:52:49;2.40;;;1.05;;
45842;SDS011;31563;51.744;8.252;2023-02-03T10:55:30;3.10;;;1.38;;
45842;SDS011;31563;51.744;8.252;2023-02-03T10:57:59;3.50;;;1.50;;
45842;SDS011;31563;51.744;8.252;2023-02-03T11:00:38;2.83;;;1.30;;
45842;SDS011;31563;51.744;8.252;2023-02-03T11:03:07;2.65;;;1.15;;
45842;SDS011;31563;51.744;8.252;2023-02-03T11:06:03;2.63;;;1.30;;
45842;SDS011;31563;51.744;8.252;2023-02-03T11:08:33;4.15;;;1.67;;
45842;SDS011;31563;51.744;8.252;2023-02-03T11:11:03;3.05;;;1.00;;
45842;SDS011;31563;51.744;8.252;2023-02-03T11:13:33;4.00;;;1.52;;
45842;SDS011;31563;51.744;8.252;2023-02-03T11:16:02;3.13;;;1.27;;
45842;SDS011;31563;51.744;8.252;2023-02-03T11:18:36;3.08;;;1.60;;
45842;SDS011;31563;51.744;8.252;2023-02-03T11:21:15;5.07;;;2.25;;
45842;SDS011;31563;51.744;8.252;2023-02-03T11:23:51;3.55;;;1.70;;
45842;SDS011;31563;51.744;8.252;2023-02-03T11:26:25;4.68;;;1.90;;
45842;SDS011;31563;51.744;8.252;2023-02-03T11:28:55;5.75;;;2.45;;
45842;SDS011;31563;51.744;8.252;2023-02-03T11:31:26;6.00;;;2.22;;
45842;SDS011;31563;51.744;8.252;2023-02-03T11:33:56;7.38;;;2.13;;
45842;SDS011;31563;51.744;8.252;2023-02-03T11:36:29;6.22;;;2.03;;
45842;SDS011;31563;51.744;8.252;2023-02-03T11:39:16;8.68;;;2.88;;
45842;SDS011;31563;51.744;8.252;2023-02-03T11:41:51;8.45;;;2.97;;
45842;SDS011;31563;51.744;8.252;2023-02-03T11:44:21;8.52;;;4.22;;
45842;SDS011;31563;51.744;8.252;2023-02-03T11:46:53;10.40;;;3.05;;
45842;SDS011;31563;51.744;8.252;2023-02-03T11:52:25;7.75;;;3.10;;
45842;SDS011;31563;51.744;8.252;2023-02-03T11:55:11;8.60;;;3.35;;
45842;SDS011;31563;51.744;8.252;2023-02-03T11:57:51;5.95;;;2.72;;
45842;SDS011;31563;51.744;8.252;2023-02-03T12:00:32;7.05;;;2.60;;
45842;SDS011;31563;51.744;8.252;2023-02-03T12:03:14;5.95;;;2.20;;
45842;SDS011;31563;51.744;8.252;2023-02-03T12:06:11;9.52;;;2.75;;
45842;SDS011;31563;51.744;8.252;2023-02-03T12:08:55;5.53;;;2.10;;
45842;SDS011;31563;51.744;8.252;2023-02-03T12:11:40;4.82;;;1.80;;
45842;SDS011;31563;51.744;8.252;2023-02-03T12:14:34;8.35;;;2.20;;
45842;SDS011;31563;51.744;8.252;2023-02-03T12:17:26;6.47;;;2.53;;
45842;SDS011;31563;51.744;8.252;2023-02-03T12:20:12;5.50;;;1.85;;
45842;SDS011;31563;51.744;8.252;2023-02-03T12:22:53;4.30;;;1.80;;
45842;SDS011;31563;51.744;8.252;2023-02-03T12:25:34;6.35;;;2.03;;
45842;SDS011;31563;51.744;8.252;2023-02-03T12:28:16;4.97;;;1.40;;
45842;SDS011;31563;51.744;8.252;2023-02-03T12:31:01;5.40;;;1.55;;
45842;SDS011;31563;51.744;8.252;2023-02-03T12:33:37;6.68;;;1.50;;
45842;SDS011;31563;51.744;8.252;2023-02-03T12:36:10;5.32;;;1.55;;
45842;SDS011;31563;51.744;8.252;2023-02-03T12:38:43;2.30;;;1.40;;
45842;SDS011;31563;51.744;8.252;2023-02-03T12:41:17;5.97;;;1.60;;
45842;SDS011;31563;51.744;8.252;2023-02-03T12:43:49;4.25;;;1.38;;
45842;SDS011;31563;51.744;8.252;2023-02-03T12:46:20;3.28;;;1.30;;
45842;SDS011;31563;51.744;8.252;2023-02-03T12:48:53;5.50;;;1.77;;
45842;SDS011;31563;51.744;8.252;2023-02-03T12:51:30;4.47;;;1.58;;
45842;SDS011;31563;51.744;8.252;2023-02-03T12:54:06;2.63;;;1.20;;
45842;SDS011;31563;51.744;8.252;2023-02-03T12:56:42;2.35;;;1.10;;
45842;SDS011;31563;51.744;8.252;2023-02-03T12:59:14;5.45;;;1.30;;
45842;SDS011;31563;51.744;8.252;2023-02-03T13:01:49;4.18;;;1.30;;
45842;SDS011;31563;51.744;8.252;2023-02-03T13:04:24;4.95;;;1.48;;
45842;SDS011;31563;51.744;8.252;2023-02-03T13:06:59;4.90;;;1.50;;
45842;SDS011;31563;51.744;8.252;2023-02-03T13:09:36;4.20;;;1.70;;
45842;SDS011;31563;51.744;8.252;2023-02-03T13:12:09;3.47;;;1.40;;
45842;SDS011;31563;51.744;8.252;2023-02-03T13:14:43;5.18;;;1.30;;
45842;SDS011;31563;51.744;8.252;2023-02-03T13:17:16;4.05;;;1.67;;
45842;SDS011;31563;51.744;8.252;2023-02-03T13:19:47;4.07;;;1.10;;
45842;SDS011;31563;51.744;8.252;2023-02-03T13:22:19;3.03;;;1.40;;
45842;SDS011;31563;51.744;8.252;2023-02-03T13:24:50;10.25;;;2.83;;
45842;SDS011;31563;51.744;8.252;2023-02-03T13:27:35;6.45;;;2.22;;
45842;SDS011;31563;51.744;8.252;2023-02-03T13:30:24;11.98;;;2.53;;
45842;SDS011;31563;51.744;8.252;2023-02-03T13:36:09;9.75;;;2.92;;
45842;SDS011;31563;51.744;8.252;2023-02-03T13:39:02;9.50;;;2.95;;
45842;SDS011;31563;51.744;8.252;2023-02-03T13:41:47;6.22;;;1.92;;
45842;SDS011;31563;51.744;8.252;2023-02-03T13:44:20;8.50;;;2.78;;
45842;SDS011;31563;51.744;8.252;2023-02-03T13:46:53;7.22;;;2.92;;
45842;SDS011;31563;51.744;8.252;2023-02-03T13:49:24;7.82;;;2.35;;
45842;SDS011;31563;51.744;8.252;2023-02-03T13:51:56;6.70;;;2.65;;
45842;SDS011;31563;51.744;8.252;2023-02-03T13:54:26;8.63;;;2.72;;
45842;SDS011;31563;51.744;8.252;2023-02-03T13:56:57;8.30;;;2.72;;
45842;SDS011;31563;51.744;8.252;2023-02-03T13:59:37;6.45;;;2.47;;
45842;SDS011;31563;51.744;8.252;2023-02-03T14:05:21;8.07;;;2.78;;
45842;SDS011;31563;51.744;8.252;2023-02-03T14:23:49;6.03;;;2.33;;
45842;SDS011;31563;51.744;8.252;2023-02-03T14:26:27;7.82;;;2.50;;
45842;SDS011;31563;51.744;8.252;2023-02-03T14:28:59;6.88;;;1.85;;
45842;SDS011;31563;51.744;8.252;2023-02-03T14:34:18;7.88;;;2.50;;
45842;SDS011;31563;51.744;8.252;2023-02-03T14:36:56;6.70;;;2.20;;
45842;SDS011;31563;51.744;8.252;2023-02-03T14:39:44;6.15;;;2.13;;
45842;SDS011;31563;51.744;8.252;2023-02-03T14:42:46;7.38;;;2.47;;
45842;SDS011;31563;51.744;8.252;2023-02-03T14:49:00;7.22;;;2.40;;
45842;SDS011;31563;51.744;8.252;2023-02-03T14:51:50;8.13;;;2.50;;
45842;SDS011;31563;51.744;8.252;2023-02-03T14:54:37;7.82;;;2.50;;
45842;SDS011;31563;51.744;8.252;2023-02-03T14:57:20;7.47;;;2.28;;
45842;SDS011;31563;51.744;8.252;2023-02-03T15:00:03;9.07;;;2.45;;
45842;SDS011;31563;51.744;8.252;2023-02-03T15:02:33;6.45;;;2.20;;
45842;SDS011;31563;51.744;8.252;2023-02-03T15:08:03;7.93;;;2.28;;
45842;SDS011;31563;51.744;8.252;2023-02-03T15:10:39;6.60;;;2.60;;
45842;SDS011;31563;51.744;8.252;2023-02-03T15:13:21;7.60;;;2.90;;
45842;SDS011;31563;51.744;8.252;2023-02-03T15:15:51;7.15;;;2.38;;
45842;SDS011;31563;51.744;8.252;2023-02-03T15:18:25;7.60;;;2.42;;
45842;SDS011;31563;51.744;8.252;2023-02-03T15:20:57;5.93;;;2.30;;
45842;SDS011;31563;51.744;8.252;2023-02-03T15:23:26;5.80;;;1.98;;
45842;SDS011;31563;51.744;8.252;2023-02-03T15:25:56;6.43;;;2.17;;
45842;SDS011;31563;51.744;8.252;2023-02-03T15:28:26;7.07;;;2.40;;
45842;SDS011;31563;51.744;8.252;2023-02-03T15:30:57;6.57;;;2.28;;
45842;SDS011;31563;51.744;8.252;2023-02-03T15:33:29;5.93;;;2.30;;
45842;SDS011;31563;51.744;8.252;2023-02-03T15:36:02;8.15;;;2.72;;
45842;SDS011;31563;51.744;8.252;2023-02-03T15:38:35;6.28;;;2.28;;
45842;SDS011;31563;51.744;8.252;2023-02-03T15:41:07;7.13;;;2.53;;
45842;SDS011;31563;51.744;8.252;2023-02-03T15:43:43;5.82;;;2.03;;
45842;SDS011;31563;51.744;8.252;2023-02-03T15:46:14;14.57;;;3.95;;
45842;SDS011;31563;51.744;8.252;2023-02-03T15:48:45;14.05;;;3.65;;
45842;SDS011;31563;51.744;8.252;2023-02-03T15:51:20;10.38;;;3.60;;
45842;SDS011;31563;51.744;8.252;2023-02-03T15:53:53;9.80;;;3.08;;
45842;SDS011;31563;51.744;8.252;2023-02-03T15:56:27;9.38;;;3.38;;
45842;SDS011;31563;51.744;8.252;2023-02-03T15:59:03;11.32;;;3.55;;
45842;SDS011;31563;51.744;8.252;2023-02-03T16:01:31;11.95;;;3.60;;
45842;SDS011;31563;51.744;8.252;2023-02-03T16:04:00;9.75;;;2.90;;